sensor_id;sensor_type;location;lat;lon;timestamp;pressure;altitude;pressure_sealevel;temperature;humidity
61039;BME280;46919;45.816;3.104;2023-08-21T00:01:17;98289.00;;;25.66;65.78
61039;BME280;46919;45.816;3.104;2023-08-21T00:03:43;98286.66;;;25.60;66.02
61039;BME280;46919;45.816;3.104;2023-08-21T00:06:08;98290.72;;;25.54;66.19
61039;BME280;46919;45.816;3.104;2023-08-21T00:08:33;98287.41;;;25.52;66.62
61039;BME280;46919;45.816;3.104;2023-08-21T00:10:59;98287.41;;;25.52;66.69
61039;BME280;46919;45.816;3.104;2023-08-21T00:13:24;98289.72;;;25.36;67.21
61039;BME280;46919;45.816;3.104;2023-08-21T00:15:50;98286.78;;;25.32;67.58
61039;BME280;46919;45.816;3.104;2023-08-21T00:18:15;98296.50;;;25.29;67.94
61039;BME280;46919;45.816;3.104;2023-08-21T00:20:41;98287.19;;;25.25;68.22
61039;BME280;46919;45.816;3.104;2023-08-21T00:23:08;98286.88;;;25.27;68.45
61039;BME280;46919;45.816;3.104;2023-08-21T00:25:34;98279.50;;;25.22;68.58
61039;BME280;46919;45.816;3.104;2023-08-21T00:27:59;98285.16;;;25.17;68.96
61039;BME280;46919;45.816;3.104;2023-08-21T00:30:25;98280.56;;;25.12;70.29
61039;BME280;46919;45.816;3.104;2023-08-21T00:32:50;98278.41;;;25.09;70.60
61039;BME280;46919;45.816;3.104;2023-08-21T00:35:16;98283.22;;;25.04;70.68
61039;BME280;46919;45.816;3.104;2023-08-21T00:37:41;98278.63;;;24.99;70.99
61039;BME280;46919;45.816;3.104;2023-08-21T00:40:07;98275.06;;;24.99;71.71
61039;BME280;46919;45.816;3.104;2023-08-21T00:42:32;98272.66;;;25.06;71.13
61039;BME280;46919;45.816;3.104;2023-08-21T00:44:58;98282.53;;;24.98;71.20
61039;BME280;46919;45.816;3.104;2023-08-21T00:47:23;98279.97;;;24.88;71.50
61039;BME280;46919;45.816;3.104;2023-08-21T00:49:49;98280.00;;;24.74;72.42
61039;BME280;46919;45.816;3.104;2023-08-21T00:52:15;98284.53;;;24.70;72.57
61039;BME280;46919;45.816;3.104;2023-08-21T00:54:42;98280.22;;;24.64;72.71
61039;BME280;46919;45.816;3.104;2023-08-21T00:57:08;98278.16;;;24.55;72.95
61039;BME280;46919;45.816;3.104;2023-08-21T00:59:35;98278.53;;;24.49;73.58
61039;BME280;46919;45.816;3.104;2023-08-21T01:02:00;98284.28;;;24.38;74.10
61039;BME280;46919;45.816;3.104;2023-08-21T01:04:26;98285.19;;;24.34;74.60
61039;BME280;46919;45.816;3.104;2023-08-21T01:06:51;98279.78;;;24.29;75.19
61039;BME280;46919;45.816;3.104;2023-08-21T01:12:03;98286.31;;;24.19;75.83
61039;BME280;46919;45.816;3.104;2023-08-21T01:14:53;98282.63;;;24.10;76.65
61039;BME280;46919;45.816;3.104;2023-08-21T01:17:21;98281.56;;;24.05;76.94
61039;BME280;46919;45.816;3.104;2023-08-21T01:19:49;98286.28;;;24.05;77.41
61039;BME280;46919;45.816;3.104;2023-08-21T01:22:16;98290.16;;;24.04;77.46
61039;BME280;46919;45.816;3.104;2023-08-21T01:24:41;98289.34;;;24.03;78.62
61039;BME280;46919;45.816;3.104;2023-08-21T01:27:07;98292.22;;;24.12;77.98
61039;BME280;46919;45.816;3.104;2023-08-21T01:29:33;98294.97;;;24.12;77.88
61039;BME280;46919;45.816;3.104;2023-08-21T01:34:48;98288.75;;;24.07;78.43
61039;BME280;46919;45.816;3.104;2023-08-21T01:37:15;98294.97;;;23.98;78.30
61039;BME280;46919;45.816;3.104;2023-08-21T01:39:42;98284.16;;;23.83;78.78
61039;BME280;46919;45.816;3.104;2023-08-21T01:42:07;98285.25;;;23.82;79.36
61039;BME280;46919;45.816;3.104;2023-08-21T01:44:33;98300.16;;;23.86;79.54
61039;BME280;46919;45.816;3.104;2023-08-21T01:46:58;98287.75;;;23.83;79.78
61039;BME280;46919;45.816;3.104;2023-08-21T01:49:23;98295.19;;;23.83;80.41
61039;BME280;46919;45.816;3.104;2023-08-21T01:51:49;98296.28;;;23.87;80.74
61039;BME280;46919;45.816;3.104;2023-08-21T01:54:14;98288.00;;;23.87;80.30
61039;BME280;46919;45.816;3.104;2023-08-21T01:56:40;98298.13;;;23.73;80.45
61039;BME280;46919;45.816;3.104;2023-08-21T01:59:05;98302.16;;;23.61;81.47
61039;BME280;46919;45.816;3.104;2023-08-21T02:01:32;98295.38;;;23.54;81.95
61039;BME280;46919;45.816;3.104;2023-08-21T02:03:57;98301.75;;;23.54;82.48
61039;BME280;46919;45.816;3.104;2023-08-21T02:06:22;98298.97;;;23.54;82.78
61039;BME280;46919;45.816;3.104;2023-08-21T02:08:48;98298.09;;;23.40;83.03
61039;BME280;46919;45.816;3.104;2023-08-21T02:11:13;98304.22;;;23.37;83.75
61039;BME280;46919;45.816;3.104;2023-08-21T02:13:39;98308.53;;;23.43;83.92
61039;BME280;46919;45.816;3.104;2023-08-21T02:16:04;98307.25;;;23.54;83.31
61039;BME280;46919;45.816;3.104;2023-08-21T02:18:30;98302.25;;;23.56;83.50
61039;BME280;46919;45.816;3.104;2023-08-21T02:20:55;98306.97;;;23.56;83.17
61039;BME280;46919;45.816;3.104;2023-08-21T02:23:20;98304.34;;;23.45;83.33
61039;BME280;46919;45.816;3.104;2023-08-21T02:25:46;98314.09;;;23.38;83.79
61039;BME280;46919;45.816;3.104;2023-08-21T02:28:12;98307.41;;;23.25;84.58
61039;BME280;46919;45.816;3.104;2023-08-21T02:30:41;98315.75;;;23.20;84.62
61039;BME280;46919;45.816;3.104;2023-08-21T02:33:06;98315.34;;;23.07;85.79
61039;BME280;46919;45.816;3.104;2023-08-21T02:35:31;98319.94;;;22.93;86.17
61039;BME280;46919;45.816;3.104;2023-08-21T02:37:57;98327.19;;;22.89;86.30
61039;BME280;46919;45.816;3.104;2023-08-21T02:40:22;98328.66;;;22.81;87.19
61039;BME280;46919;45.816;3.104;2023-08-21T02:42:48;98317.66;;;22.76;87.63
61039;BME280;46919;45.816;3.104;2023-08-21T02:45:13;98319.38;;;22.72;87.66
61039;BME280;46919;45.816;3.104;2023-08-21T02:47:39;98316.03;;;22.75;87.88
61039;BME280;46919;45.816;3.104;2023-08-21T02:50:06;98318.88;;;22.70;88.45
61039;BME280;46919;45.816;3.104;2023-08-21T02:52:33;98317.22;;;22.69;88.57
61039;BME280;46919;45.816;3.104;2023-08-21T02:54:59;98317.00;;;22.65;88.79
61039;BME280;46919;45.816;3.104;2023-08-21T02:57:25;98323.59;;;22.64;89.06
61039;BME280;46919;45.816;3.104;2023-08-21T02:59:51;98313.53;;;22.54;89.12
61039;BME280;46919;45.816;3.104;2023-08-21T03:02:17;98320.72;;;22.50;89.74
61039;BME280;46919;45.816;3.104;2023-08-21T03:04:43;98321.28;;;22.52;89.44
61039;BME280;46919;45.816;3.104;2023-08-21T03:07:08;98327.38;;;22.49;89.63
61039;BME280;46919;45.816;3.104;2023-08-21T03:09:33;98318.63;;;22.42;89.85
61039;BME280;46919;45.816;3.104;2023-08-21T03:11:59;98320.25;;;22.43;89.91
61039;BME280;46919;45.816;3.104;2023-08-21T03:14:26;98317.25;;;22.39;90.07
61039;BME280;46919;45.816;3.104;2023-08-21T03:16:52;98308.75;;;22.36;90.09
61039;BME280;46919;45.816;3.104;2023-08-21T03:19:17;98316.50;;;22.34;90.34
61039;BME280;46919;45.816;3.104;2023-08-21T03:21:42;98323.41;;;22.31;90.33
61039;BME280;46919;45.816;3.104;2023-08-21T03:24:08;98316.03;;;22.21;91.05
61039;BME280;46919;45.816;3.104;2023-08-21T03:26:33;98323.28;;;22.12;91.71
61039;BME280;46919;45.816;3.104;2023-08-21T03:28:59;98323.00;;;22.14;91.78
61039;BME280;46919;45.816;3.104;2023-08-21T03:31:24;98318.06;;;22.11;91.81
61039;BME280;46919;45.816;3.104;2023-08-21T03:33:50;98321.69;;;22.06;92.07
61039;BME280;46919;45.816;3.104;2023-08-21T03:36:15;98323.97;;;21.99;92.63
61039;BME280;46919;45.816;3.104;2023-08-21T03:38:41;98325.66;;;21.95;92.92
61039;BME280;46919;45.816;3.104;2023-08-21T03:41:06;98327.88;;;21.93;93.17
61039;BME280;46919;45.816;3.104;2023-08-21T03:43:32;98327.88;;;21.93;93.36
61039;BME280;46919;45.816;3.104;2023-08-21T03:45:58;98330.69;;;21.87;93.70
61039;BME280;46919;45.816;3.104;2023-08-21T03:48:24;98338.94;;;21.87;93.53
61039;BME280;46919;45.816;3.104;2023-08-21T03:50:49;98339.97;;;21.97;93.24
61039;BME280;46919;45.816;3.104;2023-08-21T03:53:15;98346.63;;;21.91;93.48
61039;BME280;46919;45.816;3.104;2023-08-21T03:55:40;98348.25;;;21.92;93.87
61039;BME280;46919;45.816;3.104;2023-08-21T03:58:06;98353.78;;;21.86;94.63
61039;BME280;46919;45.816;3.104;2023-08-21T04:00:31;98349.72;;;21.79;94.97
61039;BME280;46919;45.816;3.104;2023-08-21T04:02:57;98350.56;;;21.74;95.05
61039;BME280;46919;45.816;3.104;2023-08-21T04:05:23;98349.25;;;21.71;95.07
61039;BME280;46919;45.816;3.104;2023-08-21T04:07:48;98342.91;;;21.71;95.20
61039;BME280;46919;45.816;3.104;2023-08-21T04:10:14;98342.94;;;21.66;95.35
61039;BME280;46919;45.816;3.104;2023-08-21T04:12:39;98345.66;;;21.71;95.40
61039;BME280;46919;45.816;3.104;2023-08-21T04:15:05;98343.97;;;21.75;95.34
61039;BME280;46919;45.816;3.104;2023-08-21T04:17:31;98348.19;;;21.62;95.91
61039;BME280;46919;45.816;3.104;2023-08-21T04:19:57;98352.66;;;21.53;96.41
61039;BME280;46919;45.816;3.104;2023-08-21T04:22:22;98355.13;;;21.55;96.60
61039;BME280;46919;45.816;3.104;2023-08-21T04:24:48;98356.22;;;21.59;96.22
61039;BME280;46919;45.816;3.104;2023-08-21T04:27:13;98357.34;;;21.52;96.41
61039;BME280;46919;45.816;3.104;2023-08-21T04:29:39;98368.91;;;21.44;96.98
61039;BME280;46919;45.816;3.104;2023-08-21T04:32:05;98369.78;;;21.40;97.00
61039;BME280;46919;45.816;3.104;2023-08-21T04:34:32;98374.16;;;21.41;97.18
61039;BME280;46919;45.816;3.104;2023-08-21T04:36:57;98368.59;;;21.46;97.16
61039;BME280;46919;45.816;3.104;2023-08-21T04:39:23;98370.03;;;21.43;97.37
61039;BME280;46919;45.816;3.104;2023-08-21T04:41:48;98376.38;;;21.39;97.81
61039;BME280;46919;45.816;3.104;2023-08-21T04:44:14;98380.81;;;21.29;98.60
61039;BME280;46919;45.816;3.104;2023-08-21T04:46:39;98383.88;;;21.23;98.83
61039;BME280;46919;45.816;3.104;2023-08-21T04:49:04;98389.94;;;21.20;99.08
61039;BME280;46919;45.816;3.104;2023-08-21T04:51:31;98384.16;;;21.21;99.10
61039;BME280;46919;45.816;3.104;2023-08-21T04:53:56;98388.28;;;21.18;99.23
61039;BME280;46919;45.816;3.104;2023-08-21T04:56:22;98385.28;;;21.15;99.40
61039;BME280;46919;45.816;3.104;2023-08-21T04:58:47;98386.09;;;21.15;99.39
61039;BME280;46919;45.816;3.104;2023-08-21T05:01:13;98386.66;;;21.12;99.60
61039;BME280;46919;45.816;3.104;2023-08-21T05:03:38;98391.09;;;21.08;99.79
61039;BME280;46919;45.816;3.104;2023-08-21T05:06:03;98396.84;;;21.12;99.83
61039;BME280;46919;45.816;3.104;2023-08-21T05:08:29;98400.13;;;21.14;99.83
61039;BME280;46919;45.816;3.104;2023-08-21T05:10:58;98401.25;;;21.13;100.00
61039;BME280;46919;45.816;3.104;2023-08-21T05:13:24;98403.72;;;21.14;100.00
61039;BME280;46919;45.816;3.104;2023-08-21T05:15:55;98399.88;;;21.10;100.00
61039;BME280;46919;45.816;3.104;2023-08-21T05:18:21;98404.00;;;21.13;100.00
61039;BME280;46919;45.816;3.104;2023-08-21T05:20:47;98413.03;;;21.18;100.00
61039;BME280;46919;45.816;3.104;2023-08-21T05:23:13;98409.19;;;21.20;100.00
61039;BME280;46919;45.816;3.104;2023-08-21T05:25:38;98408.63;;;21.23;100.00
61039;BME280;46919;45.816;3.104;2023-08-21T05:28:05;98403.09;;;21.28;100.00
61039;BME280;46919;45.816;3.104;2023-08-21T05:30:30;98410.75;;;21.36;100.00
61039;BME280;46919;45.816;3.104;2023-08-21T05:32:56;98407.41;;;21.49;100.00
61039;BME280;46919;45.816;3.104;2023-08-21T05:35:21;98407.94;;;21.46;100.00
61039;BME280;46919;45.816;3.104;2023-08-21T05:37:46;98420.03;;;21.45;100.00
61039;BME280;46919;45.816;3.104;2023-08-21T05:40:12;98418.94;;;21.46;100.00
61039;BME280;46919;45.816;3.104;2023-08-21T05:42:38;98404.31;;;21.61;100.00
61039;BME280;46919;45.816;3.104;2023-08-21T05:45:04;98403.41;;;21.71;99.94
61039;BME280;46919;45.816;3.104;2023-08-21T05:47:30;98407.84;;;21.67;99.50
61039;BME280;46919;45.816;3.104;2023-08-21T05:49:55;98403.16;;;21.67;99.61
61039;BME280;46919;45.816;3.104;2023-08-21T05:52:21;98400.09;;;21.74;99.32
61039;BME280;46919;45.816;3.104;2023-08-21T05:54:48;98405.81;;;21.83;99.06
61039;BME280;46919;45.816;3.104;2023-08-21T05:57:13;98410.19;;;21.89;98.80
61039;BME280;46919;45.816;3.104;2023-08-21T05:59:43;98409.28;;;21.99;98.32
61039;BME280;46919;45.816;3.104;2023-08-21T06:02:10;98413.34;;;22.06;98.08
61039;BME280;46919;45.816;3.104;2023-08-21T06:04:35;98412.50;;;22.11;97.58
61039;BME280;46919;45.816;3.104;2023-08-21T06:07:00;98420.13;;;22.19;97.53
61039;BME280;46919;45.816;3.104;2023-08-21T06:09:26;98412.41;;;22.21;97.71
61039;BME280;46919;45.816;3.104;2023-08-21T06:11:51;98416.22;;;22.31;97.32
61039;BME280;46919;45.816;3.104;2023-08-21T06:14:16;98411.66;;;22.45;97.22
61039;BME280;46919;45.816;3.104;2023-08-21T06:16:42;98414.63;;;22.54;96.80
61039;BME280;46919;45.816;3.104;2023-08-21T06:19:10;98412.91;;;22.58;97.13
61039;BME280;46919;45.816;3.104;2023-08-21T06:21:35;98416.97;;;22.66;96.43
61039;BME280;46919;45.816;3.104;2023-08-21T06:24:00;98419.09;;;22.74;96.74
61039;BME280;46919;45.816;3.104;2023-08-21T06:26:26;98420.63;;;22.85;95.97
61039;BME280;46919;45.816;3.104;2023-08-21T06:28:51;98417.84;;;22.90;95.77
61039;BME280;46919;45.816;3.104;2023-08-21T06:31:17;98419.34;;;23.02;95.49
61039;BME280;46919;45.816;3.104;2023-08-21T06:33:43;98423.44;;;23.04;94.75
61039;BME280;46919;45.816;3.104;2023-08-21T06:36:08;98424.47;;;23.13;93.68
61039;BME280;46919;45.816;3.104;2023-08-21T06:38:33;98427.44;;;23.17;93.32
61039;BME280;46919;45.816;3.104;2023-08-21T06:40:59;98419.16;;;23.17;92.66
61039;BME280;46919;45.816;3.104;2023-08-21T06:43:25;98416.91;;;23.24;92.60
61039;BME280;46919;45.816;3.104;2023-08-21T06:45:50;98418.19;;;23.32;91.68
61039;BME280;46919;45.816;3.104;2023-08-21T06:48:15;98416.16;;;23.38;91.39
61039;BME280;46919;45.816;3.104;2023-08-21T06:50:41;98420.78;;;23.42;90.66
61039;BME280;46919;45.816;3.104;2023-08-21T06:53:06;98421.56;;;23.48;90.17
61039;BME280;46919;45.816;3.104;2023-08-21T06:55:32;98418.72;;;23.53;89.50
61039;BME280;46919;45.816;3.104;2023-08-21T06:57:57;98424.41;;;23.62;89.21
61039;BME280;46919;45.816;3.104;2023-08-21T07:00:23;98430.13;;;23.65;88.96
61039;BME280;46919;45.816;3.104;2023-08-21T07:02:48;98426.19;;;23.72;87.98
61039;BME280;46919;45.816;3.104;2023-08-21T07:05:13;98424.16;;;23.77;87.75
61039;BME280;46919;45.816;3.104;2023-08-21T07:07:39;98423.84;;;23.84;87.39
61039;BME280;46919;45.816;3.104;2023-08-21T07:10:04;98427.94;;;23.86;87.40
61039;BME280;46919;45.816;3.104;2023-08-21T07:12:30;98430.16;;;23.84;86.33
61039;BME280;46919;45.816;3.104;2023-08-21T07:14:56;98424.88;;;23.88;86.04
61039;BME280;46919;45.816;3.104;2023-08-21T07:17:21;98426.44;;;23.94;86.17
61039;BME280;46919;45.816;3.104;2023-08-21T07:19:46;98430.00;;;23.95;86.06
61039;BME280;46919;45.816;3.104;2023-08-21T07:22:14;98428.59;;;23.97;85.48
61039;BME280;46919;45.816;3.104;2023-08-21T07:24:39;98425.31;;;23.95;85.23
61039;BME280;46919;45.816;3.104;2023-08-21T07:27:05;98415.84;;;24.01;84.48
61039;BME280;46919;45.816;3.104;2023-08-21T07:29:30;98426.78;;;24.07;84.51
61039;BME280;46919;45.816;3.104;2023-08-21T07:31:55;98432.16;;;24.17;84.88
61039;BME280;46919;45.816;3.104;2023-08-21T07:34:21;98433.41;;;24.24;84.24
61039;BME280;46919;45.816;3.104;2023-08-21T07:36:46;98427.47;;;24.31;82.90
61039;BME280;46919;45.816;3.104;2023-08-21T07:39:12;98424.72;;;24.31;81.76
61039;BME280;46919;45.816;3.104;2023-08-21T07:41:37;98430.19;;;24.36;82.00
61039;BME280;46919;45.816;3.104;2023-08-21T07:44:03;98421.91;;;24.36;81.58
61039;BME280;46919;45.816;3.104;2023-08-21T07:46:28;98419.44;;;24.49;81.04
61039;BME280;46919;45.816;3.104;2023-08-21T07:48:53;98418.19;;;24.60;80.55
61039;BME280;46919;45.816;3.104;2023-08-21T07:51:19;98423.72;;;24.60;79.58
61039;BME280;46919;45.816;3.104;2023-08-21T07:53:45;98431.31;;;24.68;80.23
61039;BME280;46919;45.816;3.104;2023-08-21T07:56:10;98426.19;;;24.75;80.05
61039;BME280;46919;45.816;3.104;2023-08-21T07:58:36;98420.88;;;24.79;79.34
61039;BME280;46919;45.816;3.104;2023-08-21T08:01:01;98418.81;;;24.85;78.37
61039;BME280;46919;45.816;3.104;2023-08-21T08:03:27;98422.09;;;24.87;78.06
61039;BME280;46919;45.816;3.104;2023-08-21T08:05:52;98434.09;;;24.96;79.32
61039;BME280;46919;45.816;3.104;2023-08-21T08:08:17;98428.88;;;25.08;78.66
61039;BME280;46919;45.816;3.104;2023-08-21T08:10:43;98423.03;;;25.10;78.07
61039;BME280;46919;45.816;3.104;2023-08-21T08:13:09;98413.94;;;25.09;77.98
61039;BME280;46919;45.816;3.104;2023-08-21T08:15:35;98426.84;;;25.14;77.98
61039;BME280;46919;45.816;3.104;2023-08-21T08:18:03;98423.97;;;25.19;76.82
61039;BME280;46919;45.816;3.104;2023-08-21T08:20:30;98424.97;;;25.23;76.54
61039;BME280;46919;45.816;3.104;2023-08-21T08:22:56;98410.16;;;25.33;76.90
61039;BME280;46919;45.816;3.104;2023-08-21T08:25:22;98414.66;;;25.43;76.20
61039;BME280;46919;45.816;3.104;2023-08-21T08:27:47;98411.22;;;25.60;76.12
61039;BME280;46919;45.816;3.104;2023-08-21T08:30:13;98407.19;;;25.66;75.22
61039;BME280;46919;45.816;3.104;2023-08-21T08:32:40;98415.41;;;25.71;74.92
61039;BME280;46919;45.816;3.104;2023-08-21T08:35:05;98418.38;;;25.75;74.17
61039;BME280;46919;45.816;3.104;2023-08-21T08:37:32;98411.38;;;25.77;73.92
61039;BME280;46919;45.816;3.104;2023-08-21T08:39:58;98408.25;;;25.93;73.76
61039;BME280;46919;45.816;3.104;2023-08-21T08:42:23;98407.19;;;26.02;72.79
61039;BME280;46919;45.816;3.104;2023-08-21T08:44:49;98406.25;;;26.07;72.49
61039;BME280;46919;45.816;3.104;2023-08-21T08:47:15;98402.88;;;26.10;72.36
61039;BME280;46919;45.816;3.104;2023-08-21T08:49:42;98396.47;;;26.24;72.12
61039;BME280;46919;45.816;3.104;2023-08-21T08:52:08;98400.94;;;26.42;71.57
61039;BME280;46919;45.816;3.104;2023-08-21T08:54:35;98398.41;;;26.54;70.44
61039;BME280;46919;45.816;3.104;2023-08-21T08:57:02;98404.59;;;26.51;70.79
61039;BME280;46919;45.816;3.104;2023-08-21T08:59:31;98396.66;;;26.58;70.54
61039;BME280;46919;45.816;3.104;2023-08-21T09:01:57;98396.66;;;26.58;70.34
61039;BME280;46919;45.816;3.104;2023-08-21T09:04:22;98399.28;;;26.64;71.42
61039;BME280;46919;45.816;3.104;2023-08-21T09:06:48;98398.72;;;26.75;70.84
61039;BME280;46919;45.816;3.104;2023-08-21T09:09:13;98405.13;;;26.85;70.79
61039;BME280;46919;45.816;3.104;2023-08-21T09:11:43;98398.97;;;26.97;69.81
61039;BME280;46919;45.816;3.104;2023-08-21T09:14:10;98405.41;;;27.15;68.69
61039;BME280;46919;45.816;3.104;2023-08-21T09:16:35;98397.38;;;27.13;68.34
61039;BME280;46919;45.816;3.104;2023-08-21T09:19:01;98394.78;;;27.17;67.25
61039;BME280;46919;45.816;3.104;2023-08-21T09:21:27;98396.25;;;27.14;66.87
61039;BME280;46919;45.816;3.104;2023-08-21T09:23:58;98400.53;;;27.20;66.43
61039;BME280;46919;45.816;3.104;2023-08-21T09:26:24;98388.91;;;27.18;67.27
61039;BME280;46919;45.816;3.104;2023-08-21T09:28:51;98394.97;;;27.29;67.28
61039;BME280;46919;45.816;3.104;2023-08-21T09:31:29;98388.16;;;27.35;67.20
61039;BME280;46919;45.816;3.104;2023-08-21T09:33:56;98388.63;;;27.28;66.89
61039;BME280;46919;45.816;3.104;2023-08-21T09:36:22;98384.59;;;27.43;66.84
61039;BME280;46919;45.816;3.104;2023-08-21T09:38:48;98375.94;;;27.62;66.11
61039;BME280;46919;45.816;3.104;2023-08-21T09:41:13;98378.25;;;27.78;65.11
61039;BME280;46919;45.816;3.104;2023-08-21T09:43:42;98375.13;;;27.88;65.18
61039;BME280;46919;45.816;3.104;2023-08-21T09:46:14;98369.91;;;27.87;65.06
61039;BME280;46919;45.816;3.104;2023-08-21T09:48:40;98372.22;;;27.76;65.27
61039;BME280;46919;45.816;3.104;2023-08-21T09:51:06;98361.41;;;27.83;65.13
61039;BME280;46919;45.816;3.104;2023-08-21T09:53:33;98361.91;;;28.02;65.40
61039;BME280;46919;45.816;3.104;2023-08-21T09:56:00;98361.91;;;28.11;64.96
61039;BME280;46919;45.816;3.104;2023-08-21T09:58:28;98360.75;;;28.21;64.59
61039;BME280;46919;45.816;3.104;2023-08-21T10:00:57;98358.16;;;28.16;64.03
61039;BME280;46919;45.816;3.104;2023-08-21T10:03:23;98358.16;;;28.16;65.10
61039;BME280;46919;45.816;3.104;2023-08-21T10:05:49;98361.03;;;28.46;65.26
61039;BME280;46919;45.816;3.104;2023-08-21T10:08:25;98355.56;;;28.67;63.68
61039;BME280;46919;45.816;3.104;2023-08-21T10:10:53;98355.44;;;28.63;63.90
61039;BME280;46919;45.816;3.104;2023-08-21T10:13:20;98354.38;;;28.77;63.01
61039;BME280;46919;45.816;3.104;2023-08-21T10:15:46;98348.72;;;28.55;62.50
61039;BME280;46919;45.816;3.104;2023-08-21T10:18:22;98344.22;;;28.81;62.44
61039;BME280;46919;45.816;3.104;2023-08-21T10:20:49;98351.31;;;28.99;62.02
61039;BME280;46919;45.816;3.104;2023-08-21T10:23:29;98350.72;;;28.94;61.29
61039;BME280;46919;45.816;3.104;2023-08-21T10:25:59;98348.88;;;28.98;61.19
61039;BME280;46919;45.816;3.104;2023-08-21T10:28:24;98355.47;;;29.23;63.94
61039;BME280;46919;45.816;3.104;2023-08-21T10:30:50;98351.06;;;29.22;61.38
61039;BME280;46919;45.816;3.104;2023-08-21T10:33:16;98346.75;;;29.33;61.51
61039;BME280;46919;45.816;3.104;2023-08-21T10:35:42;98347.38;;;29.60;60.21
61039;BME280;46919;45.816;3.104;2023-08-21T10:38:14;98330.34;;;29.74;59.78
61039;BME280;46919;45.816;3.104;2023-08-21T10:41:07;98333.84;;;29.92;59.54
61039;BME280;46919;45.816;3.104;2023-08-21T10:46:02;98335.94;;;29.95;57.77
61039;BME280;46919;45.816;3.104;2023-08-21T10:48:27;98334.75;;;29.84;58.54
61039;BME280;46919;45.816;3.104;2023-08-21T10:50:54;98319.63;;;30.06;57.98
61039;BME280;46919;45.816;3.104;2023-08-21T10:53:20;98314.09;;;30.30;56.66
61039;BME280;46919;45.816;3.104;2023-08-21T10:55:55;98309.72;;;30.42;56.08
61039;BME280;46919;45.816;3.104;2023-08-21T10:58:21;98314.25;;;30.46;56.55
61039;BME280;46919;45.816;3.104;2023-08-21T11:00:46;98314.38;;;30.62;57.33
61039;BME280;46919;45.816;3.104;2023-08-21T11:03:12;98303.34;;;30.66;57.38
61039;BME280;46919;45.816;3.104;2023-08-21T11:05:40;98302.88;;;30.64;56.70
61039;BME280;46919;45.816;3.104;2023-08-21T11:08:05;98301.38;;;30.54;56.02
61039;BME280;46919;45.816;3.104;2023-08-21T11:10:31;98300.69;;;30.69;57.04
61039;BME280;46919;45.816;3.104;2023-08-21T11:12:58;98300.56;;;30.78;55.30
61039;BME280;46919;45.816;3.104;2023-08-21T11:15:27;98297.75;;;30.91;55.32
61039;BME280;46919;45.816;3.104;2023-08-21T11:18:00;98295.31;;;30.89;55.57
61039;BME280;46919;45.816;3.104;2023-08-21T11:20:33;98292.63;;;30.93;55.89
61039;BME280;46919;45.816;3.104;2023-08-21T11:23:00;98290.81;;;31.09;54.63
61039;BME280;46919;45.816;3.104;2023-08-21T11:25:28;98289.84;;;31.30;53.52
61039;BME280;46919;45.816;3.104;2023-08-21T11:27:55;98288.19;;;31.29;54.08
61039;BME280;46919;45.816;3.104;2023-08-21T11:30:22;98283.19;;;31.34;52.98
61039;BME280;46919;45.816;3.104;2023-08-21T11:32:49;98280.31;;;31.18;53.16
61039;BME280;46919;45.816;3.104;2023-08-21T11:35:16;98290.00;;;31.49;54.36
61039;BME280;46919;45.816;3.104;2023-08-21T11:37:44;98291.28;;;31.80;54.04
61039;BME280;46919;45.816;3.104;2023-08-21T11:40:13;98276.28;;;32.01;52.15
61039;BME280;46919;45.816;3.104;2023-08-21T11:42:39;98279.75;;;32.10;51.85
61039;BME280;46919;45.816;3.104;2023-08-21T11:45:05;98283.38;;;32.10;51.92
61039;BME280;46919;45.816;3.104;2023-08-21T11:47:32;98276.97;;;32.26;50.39
61039;BME280;46919;45.816;3.104;2023-08-21T11:50:03;98273.22;;;32.34;50.24
61039;BME280;46919;45.816;3.104;2023-08-21T11:52:29;98272.66;;;32.12;49.89
61039;BME280;46919;45.816;3.104;2023-08-21T11:54:57;98268.34;;;32.31;50.08
61039;BME280;46919;45.816;3.104;2023-08-21T11:57:22;98270.78;;;32.64;49.76
61039;BME280;46919;45.816;3.104;2023-08-21T11:59:54;98265.53;;;32.79;48.86
61039;BME280;46919;45.816;3.104;2023-08-21T12:02:25;98259.94;;;32.79;48.30
61039;BME280;46919;45.816;3.104;2023-08-21T12:04:54;98265.22;;;33.00;47.90
61039;BME280;46919;45.816;3.104;2023-08-21T12:07:20;98267.44;;;33.26;47.24
61039;BME280;46919;45.816;3.104;2023-08-21T12:09:48;98266.53;;;33.42;48.51
61039;BME280;46919;45.816;3.104;2023-08-21T12:12:15;98262.06;;;33.56;46.85
61039;BME280;46919;45.816;3.104;2023-08-21T12:14:40;98260.25;;;33.48;45.92
61039;BME280;46919;45.816;3.104;2023-08-21T12:17:06;98254.81;;;33.55;45.58
61039;BME280;46919;45.816;3.104;2023-08-21T12:19:32;98253.78;;;33.64;45.90
61039;BME280;46919;45.816;3.104;2023-08-21T12:21:57;98247.53;;;33.90;45.87
61039;BME280;46919;45.816;3.104;2023-08-21T12:24:24;98238.09;;;34.02;45.05
61039;BME280;46919;45.816;3.104;2023-08-21T12:26:49;98245.09;;;34.11;44.28
61039;BME280;46919;45.816;3.104;2023-08-21T12:29:14;98239.00;;;34.29;43.56
61039;BME280;46919;45.816;3.104;2023-08-21T12:31:40;98232.78;;;34.39;42.98
61039;BME280;46919;45.816;3.104;2023-08-21T12:34:05;98227.72;;;34.48;42.46
61039;BME280;46919;45.816;3.104;2023-08-21T12:36:33;98228.66;;;34.33;42.98
61039;BME280;46919;45.816;3.104;2023-08-21T12:38:58;98230.44;;;34.45;44.28
61039;BME280;46919;45.816;3.104;2023-08-21T12:41:24;98219.72;;;34.51;43.12
61039;BME280;46919;45.816;3.104;2023-08-21T12:43:49;98226.59;;;34.53;42.65
61039;BME280;46919;45.816;3.104;2023-08-21T12:46:15;98216.88;;;34.47;43.27
61039;BME280;46919;45.816;3.104;2023-08-21T12:48:40;98215.59;;;34.68;44.19
61039;BME280;46919;45.816;3.104;2023-08-21T12:51:05;98216.75;;;34.66;42.78
61039;BME280;46919;45.816;3.104;2023-08-21T12:53:31;98213.09;;;34.62;42.42
61039;BME280;46919;45.816;3.104;2023-08-21T12:55:56;98209.28;;;34.74;42.23
61039;BME280;46919;45.816;3.104;2023-08-21T12:58:21;98208.34;;;34.93;41.58
61039;BME280;46919;45.816;3.104;2023-08-21T13:00:47;98204.03;;;34.99;41.41
61039;BME280;46919;45.816;3.104;2023-08-21T13:03:12;98212.13;;;35.05;41.12